Time;durP1;ratioP1;P1;durP2;ratioP2;P2;SDS_P1;SDS_P2;PMS_P1;PMS_P2;Temp;Humidity;BMP_temperature;BMP_pressure;BME280_temperature;BME280_humidity;BME280_pressure;Samples;Min_cycle;Max_cycle;Signal;HPM_P1;HPM_P2
2021/10/06 00:02:10;;;;;;;4.10;3.00;;;10.60;92.50;;;;;;4957983;29;20031;-86
2021/10/06 00:04:36;;;;;;;4.28;2.70;;;10.50;92.30;;;;;;4957798;29;20434;-86
2021/10/06 00:07:01;;;;;;;3.60;2.80;;;10.50;92.50;;;;;;4940543;29;20087;-86
2021/10/06 00:09:27;;;;;;;4.55;2.95;;;10.50;92.60;;;;;;4958422;29;20034;-85
2021/10/06 00:11:53;;;;;;;3.90;2.67;;;10.50;92.70;;;;;;4957382;28;20031;-86
2021/10/06 00:14:19;;;;;;;4.55;2.90;;;10.40;92.60;;;;;;4957610;29;20387;-86
2021/10/06 00:16:45;;;;;;;5.18;2.53;;;10.40;92.60;;;;;;4957753;29;20039;-86
2021/10/06 00:19:11;;;;;;;4.88;3.33;;;10.30;92.60;;;;;;4957496;28;20019;-86
2021/10/06 00:21:37;;;;;;;3.88;2.72;;;10.30;92.90;;;;;;4957402;28;20035;-86
2021/10/06 00:24:02;;;;;;;5.00;3.13;;;10.30;93.20;;;;;;4957644;28;20039;-86
2021/10/06 00:26:28;;;;;;;7.40;3.42;;;10.20;93.30;;;;;;4940519;29;20042;-86
2021/10/06 00:28:54;;;;;;;5.20;3.35;;;10.20;93.30;;;;;;4957456;29;20030;-85
2021/10/06 00:31:20;;;;;;;22.40;3.58;;;10.20;93.50;;;;;;4957339;29;20028;-86
2021/10/06 00:33:45;;;;;;;5.05;3.22;;;10.10;93.60;;;;;;4957567;29;20027;-85
2021/10/06 00:36:11;;;;;;;5.55;2.72;;;10.10;93.70;;;;;;4957388;29;20106;-86
2021/10/06 00:38:38;;;;;;;3.83;2.55;;;10.10;93.70;;;;;;4957323;29;20111;-86
2021/10/06 00:41:04;;;;;;;4.95;2.78;;;10.10;93.80;;;;;;4957359;28;20027;-86
2021/10/06 00:43:30;;;;;;;3.83;2.70;;;10.10;93.90;;;;;;4957163;28;20085;-86
2021/10/06 00:45:56;;;;;;;7.45;3.65;;;10.10;94.20;;;;;;4957228;28;20067;-86
2021/10/06 00:48:22;;;;;;;6.35;3.70;;;10.10;94.40;;;;;;4957032;28;20070;-86
2021/10/06 00:50:47;;;;;;;7.93;4.20;;;10.10;94.50;;;;;;4956869;29;20027;-85
2021/10/06 00:53:13;;;;;;;6.70;3.63;;;10.10;94.50;;;;;;4957026;29;20102;-86
2021/10/06 00:55:40;;;;;;;4.75;3.00;;;10.10;94.40;;;;;;4957026;29;20038;-85
2021/10/06 00:58:06;;;;;;;5.57;3.50;;;10.10;94.60;;;;;;4939755;29;20031;-86
2021/10/06 01:00:32;;;;;;;6.75;3.95;;;10.10;94.70;;;;;;4956789;29;20508;-86
2021/10/06 01:02:58;;;;;;;4.53;3.05;;;10.10;94.60;;;;;;4956610;29;20371;-86
2021/10/06 01:05:24;;;;;;;5.85;3.17;;;10.10;94.80;;;;;;4956753;28;20082;-86
2021/10/06 01:07:50;;;;;;;5.20;3.20;;;10.10;94.90;;;;;;4956783;28;20086;-86
2021/10/06 01:10:16;;;;;;;4.28;2.97;;;10.10;94.90;;;;;;4957068;29;20110;-86
2021/10/06 01:12:41;;;;;;;12.32;3.33;;;10.10;94.90;;;;;;4956781;29;20030;-86
2021/10/06 01:15:11;;;;;;;10.98;3.08;;;10.00;95.10;;;;;;4956542;28;20066;-85
2021/10/06 01:17:36;;;;;;;3.63;2.72;;;10.00;95.10;;;;;;4956320;28;20118;-85
2021/10/06 01:20:07;;;;;;;5.55;3.42;;;10.00;95.10;;;;;;4956889;29;20106;-85
2021/10/06 01:22:33;;;;;;;7.07;3.42;;;10.00;95.20;;;;;;4956553;29;20027;-86
2021/10/06 01:25:02;;;;;;;4.50;2.95;;;10.00;95.30;;;;;;4939218;29;20390;-85
2021/10/06 01:27:27;;;;;;;4.40;3.05;;;9.90;95.30;;;;;;4938988;29;20039;-86
2021/10/06 01:29:53;;;;;;;5.47;3.10;;;9.90;95.30;;;;;;4938833;29;20081;-86
2021/10/06 01:32:19;;;;;;;5.13;3.33;;;9.90;95.30;;;;;;4956115;28;20031;-86
2021/10/06 01:34:57;;;;;;;5.85;2.72;;;9.90;95.40;;;;;;4956013;29;20102;-86
2021/10/06 01:37:23;;;;;;;4.82;2.67;;;9.90;95.40;;;;;;4956250;28;20043;-86
2021/10/06 01:39:48;;;;;;;10.82;2.97;;;9.80;95.40;;;;;;4956155;28;20069;-86
2021/10/06 01:42:14;;;;;;;5.70;3.60;;;9.80;95.50;;;;;;4956071;29;20122;-86
2021/10/06 01:44:40;;;;;;;6.63;3.22;;;9.70;95.60;;;;;;4956518;29;20027;-85
2021/10/06 01:47:05;;;;;;;5.50;3.20;;;9.70;96.00;;;;;;4955736;29;20039;-86
2021/10/06 01:49:31;;;;;;;7.20;3.33;;;9.70;96.10;;;;;;4956125;28;20427;-86
2021/10/06 01:51:57;;;;;;;5.20;3.17;;;9.70;96.10;;;;;;4955976;28;20371;-86
2021/10/06 01:54:22;;;;;;;4.40;3.08;;;9.70;96.20;;;;;;4938660;29;20114;-86
2021/10/06 01:56:48;;;;;;;5.53;2.97;;;9.60;96.20;;;;;;4938809;29;20099;-86
2021/10/06 01:59:14;;;;;;;6.65;3.30;;;9.60;96.30;;;;;;4955940;29;20480;-86
2021/10/06 02:01:41;;;;;;;5.47;2.72;;;9.60;96.60;;;;;;4955624;29;20031;-86
2021/10/06 02:04:07;;;;;;;4.55;3.08;;;9.60;96.60;;;;;;4938911;29;20027;-85
2021/10/06 02:06:33;;;;;;;6.55;3.10;;;9.60;96.60;;;;;;4938478;29;20493;-86
2021/10/06 02:08:59;;;;;;;10.57;3.60;;;9.60;96.60;;;;;;4955753;29;20509;-85
2021/10/06 02:11:25;;;;;;;4.85;3.70;;;9.60;97.00;;;;;;4955519;29;20030;-86
2021/10/06 02:13:50;;;;;;;4.50;2.85;;;9.60;97.10;;;;;;4955543;29;20030;-85
2021/10/06 02:16:16;;;;;;;6.20;3.67;;;9.60;97.10;;;;;;4955394;28;20076;-86
2021/10/06 02:18:42;;;;;;;5.75;3.08;;;9.50;97.30;;;;;;4955729;29;20046;-86
2021/10/06 02:21:07;;;;;;;4.15;3.53;;;9.60;97.20;;;;;;4938369;29;20027;-86
2021/10/06 02:23:34;;;;;;;4.28;2.83;;;9.50;97.20;;;;;;4955372;28;20023;-86
2021/10/06 02:25:59;;;;;;;3.45;2.78;;;9.50;97.30;;;;;;4955580;29;20105;-86
2021/10/06 02:28:25;;;;;;;5.15;3.28;;;9.50;97.20;;;;;;4955569;29;20114;-86
2021/10/06 02:30:51;;;;;;;5.00;3.13;;;9.50;97.30;;;;;;4955127;29;20382;-86
2021/10/06 02:33:16;;;;;;;4.82;2.83;;;9.50;97.50;;;;;;4956014;28;20043;-85
2021/10/06 02:35:42;;;;;;;3.45;2.97;;;9.50;97.70;;;;;;4957375;28;20035;-85
2021/10/06 02:38:08;;;;;;;6.97;3.15;;;9.50;97.70;;;;;;4960158;28;20449;-85
2021/10/06 02:40:33;;;;;;;6.80;3.55;;;9.50;97.80;;;;;;4959370;29;20434;-85
2021/10/06 02:43:00;;;;;;;4.70;3.25;;;9.50;98.20;;;;;;4959470;28;20083;-86
2021/10/06 02:45:26;;;;;;;7.55;4.35;;;9.50;98.10;;;;;;4959052;29;20111;-86
2021/10/06 02:47:52;;;;;;;6.93;3.42;;;9.50;98.10;;;;;;4959288;29;20441;-86
2021/10/06 02:50:21;;;;;;;5.78;3.50;;;9.50;98.20;;;;;;4942128;29;20122;-86
2021/10/06 02:52:47;;;;;;;6.25;3.63;;;9.60;98.30;;;;;;4942253;29;20546;-85
2021/10/06 02:55:13;;;;;;;4.85;2.92;;;9.60;98.40;;;;;;4943199;29;20122;-86
2021/10/06 02:57:38;;;;;;;4.72;2.83;;;9.60;98.20;;;;;;4959063;29;20031;-86
2021/10/06 03:00:10;;;;;;;7.57;3.58;;;9.60;98.10;;;;;;4946238;29;20027;-86
2021/10/06 03:02:36;;;;;;;4.32;2.78;;;9.60;98.50;;;;;;4953490;29;20364;-86
2021/10/06 03:05:03;;;;;;;4.53;3.05;;;9.60;98.30;;;;;;4969961;29;20038;-86
2021/10/06 03:07:29;;;;;;;6.15;4.05;;;9.60;98.40;;;;;;4942956;29;20101;-85
2021/10/06 03:09:54;;;;;;;5.50;2.88;;;9.60;98.50;;;;;;4958929;28;20103;-86
2021/10/06 03:12:20;;;;;;;3.60;3.08;;;9.60;98.50;;;;;;4958858;29;20027;-85
2021/10/06 03:14:45;;;;;;;4.30;2.85;;;9.60;98.30;;;;;;4958795;28;20033;-86
2021/10/06 03:17:11;;;;;;;6.72;3.63;;;9.60;98.40;;;;;;4941561;29;20182;-86
2021/10/06 03:19:37;;;;;;;5.75;3.95;;;9.60;98.40;;;;;;4958481;29;20063;-85
2021/10/06 03:22:03;;;;;;;6.28;3.15;;;9.60;98.30;;;;;;4958643;29;20033;-85
2021/10/06 03:24:28;;;;;;;8.38;3.55;;;9.60;98.50;;;;;;4958790;29;20031;-85
2021/10/06 03:26:54;;;;;;;6.88;3.60;;;9.60;98.60;;;;;;4958316;29;20386;-86
2021/10/06 03:29:20;;;;;;;4.55;2.75;;;9.60;98.50;;;;;;4958103;28;20035;-86
2021/10/06 03:31:45;;;;;;;2.75;2.20;;;9.60;98.70;;;;;;4941324;29;20183;-86
2021/10/06 03:34:11;;;;;;;5.43;2.97;;;9.60;98.60;;;;;;4958350;29;20074;-86
2021/10/06 03:36:37;;;;;;;5.13;3.97;;;9.60;98.80;;;;;;4958270;28;20038;-86
2021/10/06 03:39:03;;;;;;;4.63;2.92;;;9.60;99.10;;;;;;4958213;29;20035;-86
2021/10/06 03:41:29;;;;;;;5.57;3.58;;;9.60;99.00;;;;;;4941052;29;20035;-86
2021/10/06 03:43:55;;;;;;;4.75;3.03;;;9.60;98.90;;;;;;4940719;29;20055;-85
2021/10/06 03:46:21;;;;;;;4.35;3.20;;;9.60;98.90;;;;;;4957802;28;20046;-86
2021/10/06 03:48:46;;;;;;;10.25;3.63;;;9.60;99.10;;;;;;4940003;29;20055;-86
2021/10/06 03:51:12;;;;;;;6.40;3.45;;;9.70;99.10;;;;;;4958013;29;20154;-85
2021/10/06 03:53:39;;;;;;;5.28;3.33;;;9.70;99.00;;;;;;4958074;28;20035;-85
2021/10/06 03:56:06;;;;;;;5.50;3.15;;;9.70;98.70;;;;;;4940596;29;20035;-86
2021/10/06 03:58:31;;;;;;;6.75;3.45;;;9.70;98.70;;;;;;4957958;28;20050;-86
2021/10/06 04:00:57;;;;;;;4.70;3.15;;;9.70;98.70;;;;;;4957946;29;20379;-86
2021/10/06 04:03:23;;;;;;;6.07;3.55;;;9.70;98.90;;;;;;4958174;28;20035;-86
2021/10/06 04:05:49;;;;;;;6.55;3.92;;;9.70;98.80;;;;;;4957482;29;20050;-86
2021/10/06 04:08:17;;;;;;;4.97;2.60;;;9.70;98.80;;;;;;4957708;29;20059;-86
2021/10/06 04:10:43;;;;;;;3.40;2.35;;;9.70;98.60;;;;;;4957557;29;20025;-87
2021/10/06 04:13:09;;;;;;;8.18;3.17;;;9.70;98.50;;;;;;4957435;29;20094;-86
2021/10/06 04:15:34;;;;;;;4.63;3.33;;;9.70;98.50;;;;;;4957474;29;20087;-86
2021/10/06 04:18:02;;;;;;;5.13;3.40;;;9.70;98.40;;;;;;4957606;28;20027;-86
2021/10/06 04:20:28;;;;;;;3.85;2.78;;;9.70;98.30;;;;;;4957561;28;20027;-86
2021/10/06 04:22:54;;;;;;;4.97;2.97;;;9.70;98.30;;;;;;4957699;29;20107;-86
2021/10/06 04:25:19;;;;;;;6.03;3.78;;;9.70;98.20;;;;;;4957297;29;20031;-86
2021/10/06 04:27:45;;;;;;;3.88;2.45;;;9.70;98.30;;;;;;4957135;28;20106;-86
2021/10/06 04:30:11;;;;;;;4.63;2.83;;;9.80;98.30;;;;;;4939829;29;20458;-86
2021/10/06 04:32:37;;;;;;;5.22;3.55;;;9.80;98.20;;;;;;4940270;29;20029;-87
2021/10/06 04:35:03;;;;;;;5.38;3.47;;;9.80;98.20;;;;;;4957433;28;20106;-85
2021/10/06 04:37:29;;;;;;;5.97;3.03;;;9.90;98.20;;;;;;4957285;28;20058;-86
2021/10/06 04:39:55;;;;;;;4.82;3.20;;;9.90;98.20;;;;;;4939925;29;20031;-85
2021/10/06 04:42:20;;;;;;;7.40;3.97;;;10.00;98.20;;;;;;4939679;29;20058;-87
2021/10/06 04:44:46;;;;;;;8.65;4.35;;;10.00;98.10;;;;;;4939747;29;20035;-85
2021/10/06 04:47:12;;;;;;;8.10;3.55;;;10.10;98.20;;;;;;4956743;28;20449;-85
2021/10/06 04:49:37;;;;;;;5.43;3.25;;;10.10;98.00;;;;;;4956626;29;20031;-85
2021/10/06 04:52:03;;;;;;;5.75;3.80;;;10.10;97.80;;;;;;4956554;29;20027;-85
2021/10/06 04:54:29;;;;;;;3.92;2.45;;;10.20;97.80;;;;;;4938861;29;20199;-85
2021/10/06 04:56:54;;;;;;;6.03;3.90;;;10.20;97.70;;;;;;4956627;28;20035;-85
2021/10/06 04:59:20;;;;;;;7.40;4.13;;;10.30;97.70;;;;;;4956596;28;20030;-84
2021/10/06 05:01:46;;;;;;;5.55;2.85;;;10.40;97.60;;;;;;4923390;29;20035;-85
2021/10/06 05:04:11;;;;;;;5.30;3.55;;;10.40;97.50;;;;;;4956548;29;20098;-85
2021/10/06 05:06:38;;;;;;;4.35;3.00;;;10.50;97.40;;;;;;4956029;28;20103;-85
2021/10/06 05:09:03;;;;;;;6.45;3.55;;;10.60;97.40;;;;;;4955225;28;20074;-84
2021/10/06 05:11:29;;;;;;;4.30;3.00;;;10.60;97.20;;;;;;4955847;29;20039;-86
2021/10/06 05:13:55;;;;;;;5.05;3.22;;;10.70;97.00;;;;;;4956500;29;20054;-85
2021/10/06 05:16:21;;;;;;;5.47;3.58;;;10.80;96.90;;;;;;4939122;29;20032;-85
2021/10/06 05:18:46;;;;;;;7.13;3.50;;;10.80;96.80;;;;;;4956260;28;20027;-86
2021/10/06 05:21:12;;;;;;;11.82;4.32;;;10.80;96.60;;;;;;4938116;29;20386;-85
2021/10/06 05:23:38;;;;;;;5.47;3.63;;;10.90;96.60;;;;;;4938873;29;20065;-86
2021/10/06 05:26:04;;;;;;;4.30;3.05;;;10.90;96.60;;;;;;4958961;29;20051;-86
2021/10/06 05:28:29;;;;;;;3.20;2.65;;;11.00;96.50;;;;;;4938704;29;20038;-86
2021/10/06 05:30:55;;;;;;;5.25;3.70;;;11.10;96.40;;;;;;4956178;29;20030;-87
2021/10/06 05:33:22;;;;;;;5.60;4.15;;;11.10;96.30;;;;;;4956066;28;20030;-85
2021/10/06 05:35:48;;;;;;;6.88;4.15;;;11.10;96.20;;;;;;4955675;29;20039;-86
2021/10/06 05:38:14;;;;;;;6.30;3.97;;;11.10;96.50;;;;;;4955500;28;20024;-87
2021/10/06 05:40:40;;;;;;;7.53;4.13;;;11.20;96.50;;;;;;4938414;29;20035;-86
2021/10/06 05:43:11;;;;;;;5.78;3.50;;;11.20;96.40;;;;;;4955973;29;20079;-86
2021/10/06 05:45:37;;;;;;;6.70;3.75;;;11.30;96.10;;;;;;4955658;29;20042;-85
2021/10/06 05:48:02;;;;;;;6.20;3.78;;;11.40;95.80;;;;;;4955561;29;20028;-86
2021/10/06 05:50:28;;;;;;;3.88;3.25;;;11.40;95.60;;;;;;4955870;29;20098;-86
2021/10/06 05:53:01;;;;;;;5.47;3.95;;;11.40;95.60;;;;;;4955496;28;20042;-86
2021/10/06 05:55:27;;;;;;;4.90;3.40;;;11.50;95.60;;;;;;4955679;29;20067;-86
2021/10/06 05:57:53;;;;;;;3.45;2.95;;;11.60;95.70;;;;;;4955301;29;20265;-86
2021/10/06 06:00:19;;;;;;;6.28;3.83;;;11.70;95.40;;;;;;4938135;29;20054;-86
2021/10/06 06:02:48;;;;;;;5.68;3.35;;;11.90;94.80;;;;;;4955423;28;20027;-86
2021/10/06 06:05:18;;;;;;;6.30;3.72;;;11.90;94.40;;;;;;4955438;29;20106;-86
2021/10/06 06:07:45;;;;;;;8.80;4.15;;;12.00;94.10;;;;;;4954911;28;20198;-86
2021/10/06 06:10:13;;;;;;;5.43;3.60;;;12.00;94.00;;;;;;4954551;28;20445;-86
2021/10/06 06:12:38;;;;;;;7.25;3.80;;;12.10;93.80;;;;;;4955519;29;20067;-86
2021/10/06 06:15:05;;;;;;;8.85;4.00;;;12.10;93.60;;;;;;4937827;29;20055;-86
2021/10/06 06:17:36;;;;;;;4.75;3.50;;;12.10;93.40;;;;;;4955316;29;20027;-85
2021/10/06 06:20:04;;;;;;;6.47;3.97;;;12.10;93.20;;;;;;4955176;28;20550;-86
2021/10/06 06:22:30;;;;;;;5.45;3.10;;;12.20;92.90;;;;;;4937704;29;20038;-87
2021/10/06 06:24:56;;;;;;;4.22;3.47;;;12.20;92.90;;;;;;4937800;29;20031;-85
2021/10/06 06:27:21;;;;;;;4.88;3.55;;;12.30;92.70;;;;;;4937891;29;20059;-86
2021/10/06 06:29:47;;;;;;;5.60;3.65;;;12.30;92.30;;;;;;4937655;29;20517;-86
2021/10/06 06:32:12;;;;;;;6.20;4.03;;;12.30;92.30;;;;;;4954997;28;20130;-86
2021/10/06 06:34:38;;;;;;;6.25;4.15;;;12.40;92.30;;;;;;4937437;28;20087;-86
2021/10/06 06:37:04;;;;;;;5.85;3.85;;;12.50;92.00;;;;;;4938180;29;20031;-86
2021/10/06 06:39:29;;;;;;;7.80;5.65;;;12.60;91.60;;;;;;4937756;29;20071;-86
2021/10/06 06:41:55;;;;;;;7.05;4.50;;;12.60;91.30;;;;;;4954898;29;20347;-86
2021/10/06 06:44:21;;;;;;;7.97;4.32;;;12.50;91.30;;;;;;4954610;29;20454;-85
2021/10/06 06:46:46;;;;;;;5.50;3.85;;;12.50;91.40;;;;;;4955162;29;20131;-86
2021/10/06 06:49:12;;;;;;;7.32;4.10;;;12.40;91.50;;;;;;4954421;28;20505;-86
2021/10/06 06:51:38;;;;;;;7.45;4.22;;;12.40;91.90;;;;;;4953119;29;20027;-86
2021/10/06 06:54:03;;;;;;;5.25;3.70;;;12.40;91.90;;;;;;4954648;29;20079;-86
2021/10/06 06:56:30;;;;;;;5.75;3.97;;;12.40;91.40;;;;;;4937473;29;20043;-85
2021/10/06 06:58:56;;;;;;;8.43;4.60;;;12.40;91.40;;;;;;4954641;29;20102;-86
2021/10/06 07:01:21;;;;;;;8.27;4.63;;;12.40;91.20;;;;;;4953288;28;20055;-86
2021/10/06 07:03:47;;;;;;;6.72;4.65;;;12.30;90.90;;;;;;4934620;29;20036;-86
2021/10/06 07:06:13;;;;;;;7.35;4.78;;;12.30;90.70;;;;;;4952782;28;20039;-86
2021/10/06 07:08:41;;;;;;;6.22;3.92;;;12.20;90.40;;;;;;4953832;29;20032;-86
2021/10/06 07:11:07;;;;;;;5.38;3.25;;;12.10;90.90;;;;;;4953325;29;20035;-87
2021/10/06 07:13:32;;;;;;;6.78;4.68;;;12.10;90.80;;;;;;4934966;29;20036;-86
2021/10/06 07:15:58;;;;;;;5.10;3.67;;;12.20;90.50;;;;;;4953300;28;20038;-86
2021/10/06 07:18:24;;;;;;;7.95;4.10;;;12.20;90.60;;;;;;4954536;28;20024;-86
2021/10/06 07:20:50;;;;;;;7.05;3.58;;;12.20;90.50;;;;;;4954266;28;20024;-86
2021/10/06 07:23:15;;;;;;;6.93;3.67;;;12.30;90.50;;;;;;4957339;28;20031;-86
2021/10/06 07:25:41;;;;;;;5.57;4.15;;;12.30;90.10;;;;;;4958165;28;20082;-85
2021/10/06 07:28:07;;;;;;;7.90;4.28;;;12.40;89.60;;;;;;4958534;28;20031;-85
2021/10/06 07:30:32;;;;;;;6.05;4.05;;;12.40;89.30;;;;;;4940697;29;20435;-86
2021/10/06 07:32:59;;;;;;;8.75;4.28;;;12.40;88.80;;;;;;4940575;28;20430;-86
2021/10/06 07:35:28;;;;;;;7.32;3.85;;;12.40;88.20;;;;;;4940663;29;20035;-86
2021/10/06 07:37:53;;;;;;;4.40;3.30;;;12.40;88.40;;;;;;4957889;28;20050;-86
2021/10/06 07:40:19;;;;;;;3.85;3.17;;;12.40;88.00;;;;;;4957902;28;20031;-87
2021/10/06 07:42:44;;;;;;;3.70;2.75;;;12.50;88.30;;;;;;4940455;29;20079;-86
2021/10/06 07:45:10;;;;;;;5.22;3.28;;;12.60;88.40;;;;;;4957518;29;20034;-86
2021/10/06 07:47:36;;;;;;;6.28;3.90;;;12.70;88.40;;;;;;4957026;28;20123;-86
2021/10/06 07:50:02;;;;;;;5.70;4.22;;;12.80;87.00;;;;;;4957711;28;20027;-85
2021/10/06 07:52:28;;;;;;;9.23;4.10;;;12.90;86.10;;;;;;4957284;29;20129;-85
2021/10/06 07:54:54;;;;;;;5.18;3.72;;;12.90;84.60;;;;;;4956627;28;20483;-86
2021/10/06 07:57:20;;;;;;;11.05;3.50;;;12.90;83.20;;;;;;4956961;28;20035;-85
2021/10/06 07:59:45;;;;;;;5.35;4.00;;;12.80;82.30;;;;;;4940077;29;20454;-85
2021/10/06 08:02:11;;;;;;;5.20;3.70;;;12.80;82.60;;;;;;4939519;29;20367;-86
2021/10/06 08:04:37;;;;;;;4.95;3.10;;;12.80;81.20;;;;;;4963217;28;20462;-87
2021/10/06 08:07:03;;;;;;;5.55;3.60;;;12.80;78.80;;;;;;4960687;28;20043;-85
2021/10/06 08:09:30;;;;;;;5.75;2.95;;;12.80;78.10;;;;;;4937896;29;20031;-87
2021/10/06 08:11:56;;;;;;;4.47;2.72;;;12.80;77.70;;;;;;4934569;29;20063;-92
2021/10/06 08:14:22;;;;;;;5.40;2.70;;;12.90;77.30;;;;;;4947468;29;20067;-85
2021/10/06 08:16:51;;;;;;;4.63;3.05;;;12.90;77.30;;;;;;4958076;28;20031;-87
2021/10/06 08:19:17;;;;;;;4.90;3.30;;;13.00;76.70;;;;;;4921153;29;20050;-87
2021/10/06 08:21:45;;;;;;;5.97;3.50;;;13.10;74.50;;;;;;4961505;28;20031;-87
2021/10/06 08:24:11;;;;;;;2.78;2.30;;;13.10;73.60;;;;;;4956906;28;20058;-87
2021/10/06 08:26:37;;;;;;;3.00;2.33;;;13.10;73.70;;;;;;4953336;29;20390;-86
2021/10/06 08:29:03;;;;;;;3.63;2.78;;;13.10;74.60;;;;;;4952331;28;20023;-88
2021/10/06 08:31:29;;;;;;;3.10;2.63;;;13.10;74.80;;;;;;4934509;29;20561;-87
2021/10/06 08:33:54;;;;;;;7.43;2.97;;;13.20;74.20;;;;;;4934393;29;20355;-85
2021/10/06 08:36:20;;;;;;;2.85;2.30;;;13.30;73.70;;;;;;4953273;29;20134;-87
2021/10/06 08:38:46;;;;;;;3.35;2.63;;;13.30;73.80;;;;;;4931857;29;20040;-88
2021/10/06 08:41:12;;;;;;;3.03;2.65;;;13.40;73.00;;;;;;4953619;28;20114;-86
2021/10/06 08:43:42;;;;;;;3.58;2.50;;;13.50;72.60;;;;;;4938312;29;20074;-85
2021/10/06 08:46:07;;;;;;;3.92;2.60;;;13.50;72.30;;;;;;4955006;28;20391;-85
2021/10/06 08:48:33;;;;;;;3.33;2.33;;;13.60;71.70;;;;;;4938518;29;20027;-84
2021/10/06 08:50:59;;;;;;;4.20;2.85;;;13.70;71.70;;;;;;4955935;29;20094;-83
2021/10/06 08:53:24;;;;;;;4.95;2.80;;;13.70;72.00;;;;;;4956525;29;20048;-86
2021/10/06 08:55:50;;;;;;;3.40;2.42;;;13.80;71.60;;;;;;4939568;29;20042;-82
2021/10/06 08:58:16;;;;;;;3.20;2.55;;;13.80;71.10;;;;;;4957500;28;20023;-84
2021/10/06 09:00:56;;;;;;;5.40;3.47;;;13.80;71.30;;;;;;4935521;28;20123;-84
2021/10/06 09:03:33;;;;;;;5.72;2.92;;;13.90;69.90;;;;;;4939250;29;20068;-85
2021/10/06 09:06:01;;;;;;;2.95;2.53;;;13.90;67.60;;;;;;4939310;29;20044;-84
2021/10/06 09:08:26;;;;;;;5.25;3.15;;;13.80;68.80;;;;;;4957376;29;20038;-84
2021/10/06 09:10:52;;;;;;;4.28;2.63;;;13.90;68.80;;;;;;4942879;29;20031;-84
2021/10/06 09:13:29;;;;;;;3.90;3.10;;;13.90;69.30;;;;;;4946416;28;20027;-88
2021/10/06 09:15:56;;;;;;;2.97;2.42;;;13.90;68.60;;;;;;4950810;29;20027;-86
2021/10/06 09:18:24;;;;;;;3.78;2.95;;;14.00;68.50;;;;;;4950183;29;20034;-86
2021/10/06 09:20:51;;;;;;;9.55;3.45;;;14.00;68.10;;;;;;4943266;29;20506;-87
2021/10/06 09:23:22;;;;;;;4.88;2.55;;;14.00;67.90;;;;;;4953992;28;20038;-87
2021/10/06 09:26:01;;;;;;;4.28;2.80;;;14.00;68.10;;;;;;4956039;28;20039;-87
2021/10/06 09:28:28;;;;;;;3.47;2.92;;;14.00;67.20;;;;;;4937756;29;20126;-85
2021/10/06 09:30:59;;;;;;;4.53;3.53;;;14.00;66.30;;;;;;4955632;28;20031;-87
2021/10/06 09:33:50;;;;;;;5.72;3.28;;;13.90;65.70;;;;;;4956252;28;20466;-86
2021/10/06 09:36:35;;;;;;;4.78;2.85;;;13.90;65.40;;;;;;4939125;29;20122;-85
2021/10/06 09:39:08;;;;;;;4.57;2.58;;;13.90;65.80;;;;;;4948041;28;20126;-86
2021/10/06 09:41:44;;;;;;;3.33;2.50;;;13.90;66.00;;;;;;4955042;28;20031;-87
2021/10/06 09:44:16;;;;;;;3.35;2.67;;;14.00;66.20;;;;;;4937769;28;20062;-87
2021/10/06 09:46:49;;;;;;;5.20;2.35;;;14.00;66.00;;;;;;4947384;29;20071;-87
2021/10/06 09:49:20;;;;;;;;;;;14.10;65.30;;;;;;4937836;29;20040;-87
2021/10/06 09:51:50;;;;;;;4.03;2.30;;;14.20;64.30;;;;;;4934670;29;19968;-88
2021/10/06 09:54:20;;;;;;;4.70;2.53;;;14.20;64.40;;;;;;4954109;29;20039;-87
2021/10/06 09:56:48;;;;;;;4.03;2.60;;;14.30;64.50;;;;;;4955101;28;20493;-87
2021/10/06 09:59:16;;;;;;;3.30;2.60;;;14.30;64.90;;;;;;4954872;28;20493;-88
2021/10/06 10:01:45;;;;;;;2.72;2.13;;;14.40;63.20;;;;;;4922522;28;20046;-87
2021/10/06 10:04:12;;;;;;;4.28;2.40;;;14.40;62.70;;;;;;4961223;28;20041;-88
2021/10/06 10:06:39;;;;;;;5.47;3.42;;;14.40;62.70;;;;;;4950253;28;20041;-87
2021/10/06 10:09:07;;;;;;;4.28;2.60;;;14.40;62.40;;;;;;4941617;28;20030;-88
2021/10/06 10:11:35;;;;;;;5.55;2.60;;;14.50;62.70;;;;;;4940159;28;20118;-88
2021/10/06 10:14:04;;;;;;;3.28;2.33;;;14.50;62.00;;;;;;4957780;28;20027;-86
2021/10/06 10:16:30;;;;;;;2.10;1.90;;;14.60;61.40;;;;;;4974498;28;20057;-86
2021/10/06 10:19:06;;;;;;;3.38;2.30;;;14.50;60.20;;;;;;4974504;28;20062;-85
2021/10/06 10:21:32;;;;;;;2.97;2.22;;;14.60;60.10;;;;;;4974350;28;20478;-85
2021/10/06 10:24:19;;;;;;;2.80;2.40;;;14.60;58.90;;;;;;4974016;28;20034;-85
2021/10/06 10:27:04;;;;;;;1.90;1.80;;;14.60;59.20;;;;;;4974450;28;20042;-85
2021/10/06 10:29:43;;;;;;;5.80;2.30;;;14.70;59.50;;;;;;4972685;28;20029;-84
2021/10/06 10:32:17;;;;;;;2.90;2.40;;;14.70;59.40;;;;;;4974289;28;20027;-84
2021/10/06 10:35:08;;;;;;;5.03;3.00;;;14.80;57.60;;;;;;4967447;28;20387;-84
2021/10/06 10:37:49;;;;;;;3.70;2.45;;;14.80;56.80;;;;;;4974481;28;20027;-84
2021/10/06 10:40:44;;;;;;;2.83;2.28;;;14.80;56.40;;;;;;4974035;28;20458;-84
2021/10/06 10:43:53;;;;;;;2.80;2.47;;;14.80;57.50;;;;;;4939802;28;20563;-85
2021/10/06 10:46:18;;;;;;;2.92;2.40;;;14.80;55.80;;;;;;4939642;28;20050;-85
2021/10/06 10:49:01;;;;;;;3.25;2.33;;;14.80;55.90;;;;;;4954050;28;20698;-84
2021/10/06 10:51:57;;;;;;;9.73;3.35;;;14.80;55.50;;;;;;4942816;28;20336;-87
2021/10/06 10:54:40;;;;;;;2.88;2.25;;;14.90;54.40;;;;;;4949592;28;20442;-86
2021/10/06 10:57:20;;;;;;;2.83;2.47;;;14.80;54.90;;;;;;4936324;28;20066;-86
2021/10/06 10:59:49;;;;;;;5.55;2.53;;;14.80;54.30;;;;;;4940365;28;20019;-86
2021/10/06 11:02:21;;;;;;;4.53;2.78;;;14.80;53.40;;;;;;4948799;29;20074;-85
2021/10/06 11:04:56;;;;;;;3.80;2.42;;;14.70;53.70;;;;;;4945212;28;20090;-86
2021/10/06 11:07:22;;;;;;;2.58;2.35;;;14.70;53.90;;;;;;4958566;28;20386;-85
2021/10/06 11:09:55;;;;;;;2.85;2.15;;;14.80;54.00;;;;;;4942506;28;20122;-86
2021/10/06 11:12:21;;;;;;;;;;;14.70;53.90;;;;;;4973069;28;20379;-86
2021/10/06 11:14:49;;;;;;;3.17;2.33;;;14.70;53.30;;;;;;4976410;28;19921;-86
2021/10/06 11:17:19;;;;;;;5.95;2.90;;;14.80;53.70;;;;;;4960032;28;20027;-86
2021/10/06 11:19:54;;;;;;;3.25;2.10;;;14.80;53.20;;;;;;4977740;28;20035;-86
2021/10/06 11:22:24;;;;;;;5.72;2.42;;;14.80;53.70;;;;;;4946518;28;20372;-86
2021/10/06 11:25:09;;;;;;;2.40;2.20;;;14.80;53.00;;;;;;4960960;28;20448;-88
2021/10/06 11:27:46;;;;;;;3.92;2.42;;;14.70;52.60;;;;;;4977727;28;20477;-86
2021/10/06 11:30:15;;;;;;;3.60;2.22;;;14.70;53.10;;;;;;4946003;29;20031;-86
2021/10/06 11:32:49;;;;;;;2.65;2.13;;;14.70;52.40;;;;;;4957702;28;20031;-86
2021/10/06 11:35:15;;;;;;;3.25;2.35;;;14.60;51.70;;;;;;4957387;28;20034;-87
2021/10/06 11:37:41;;;;;;;1.98;1.77;;;14.60;52.40;;;;;;4934838;29;20533;-85
2021/10/06 11:40:15;;;;;;;2.42;2.00;;;14.50;51.30;;;;;;4935666;29;20032;-85
2021/10/06 11:42:41;;;;;;;;;;;14.50;50.60;;;;;;4974727;28;21087;-85
2021/10/06 11:45:17;;;;;;;3.42;1.83;;;14.40;50.70;;;;;;4961029;28;20369;-85
2021/10/06 11:47:43;;;;;;;3.70;2.08;;;14.50;51.90;;;;;;4940375;29;20127;-83
2021/10/06 11:50:09;;;;;;;4.50;2.10;;;14.50;50.60;;;;;;4957035;29;20078;-85
2021/10/06 11:52:35;;;;;;;2.72;2.13;;;14.50;50.70;;;;;;4936964;29;20035;-85
2021/10/06 11:55:01;;;;;;;3.40;2.38;;;14.40;50.80;;;;;;4953227;29;20031;-85
2021/10/06 11:57:27;;;;;;;2.45;2.25;;;14.40;50.10;;;;;;4954513;28;20074;-86
2021/10/06 11:59:53;;;;;;;4.97;2.00;;;14.40;50.20;;;;;;4939177;28;20397;-85
2021/10/06 12:02:21;;;;;;;2.22;1.55;;;14.40;50.30;;;;;;4957150;29;20077;-85
2021/10/06 12:04:49;;;;;;;2.97;2.10;;;14.40;50.50;;;;;;4939510;29;20079;-86
2021/10/06 12:07:21;;;;;;;9.65;3.15;;;14.40;50.10;;;;;;4954590;28;20038;-87
2021/10/06 12:09:48;;;;;;;3.47;2.75;;;14.40;49.60;;;;;;4950266;29;20027;-86
2021/10/06 12:12:29;;;;;;;3.78;2.00;;;14.30;49.40;;;;;;4936592;28;20027;-88
2021/10/06 12:15:05;;;;;;;2.03;1.58;;;14.30;49.50;;;;;;4954590;29;20163;-86
2021/10/06 12:17:45;;;;;;;2.13;1.58;;;14.30;49.90;;;;;;4949810;28;20027;-86
2021/10/06 12:20:20;;;;;;;3.58;2.00;;;14.30;49.80;;;;;;4937375;29;20482;-86
2021/10/06 12:22:59;;;;;;;2.35;1.65;;;14.30;49.20;;;;;;4934041;28;20486;-84
2021/10/06 12:25:31;;;;;;;2.75;1.63;;;14.30;48.70;;;;;;4933807;29;20062;-85
2021/10/06 12:27:59;;;;;;;2.70;1.90;;;14.30;48.90;;;;;;4934493;29;20059;-86
2021/10/06 12:30:32;;;;;;;2.75;1.88;;;14.30;49.00;;;;;;4934352;29;20035;-85
2021/10/06 12:33:11;;;;;;;1.60;1.50;;;14.30;49.10;;;;;;4933692;29;20058;-85
2021/10/06 12:35:45;;;;;;;3.65;2.25;;;14.30;49.20;;;;;;4919221;29;20266;-85
2021/10/06 12:38:12;;;;;;;3.20;2.00;;;14.30;49.60;;;;;;4937354;29;20060;-85
2021/10/06 12:40:51;;;;;;;5.07;2.88;;;14.40;49.80;;;;;;4933899;29;20031;-86
2021/10/06 12:43:21;;;;;;;2.30;2.10;;;14.40;49.10;;;;;;4955920;29;20124;-85
2021/10/06 12:46:09;;;;;;;6.97;2.30;;;14.40;49.20;;;;;;4954540;29;20031;-85
2021/10/06 12:48:52;;;;;;;3.20;2.28;;;14.40;48.90;;;;;;4957814;28;20106;-86
2021/10/06 12:51:27;;;;;;;4.30;2.35;;;14.50;48.40;;;;;;4944726;29;20051;-85
2021/10/06 12:53:59;;;;;;;4.38;2.33;;;14.50;47.90;;;;;;4937969;29;20039;-85
2021/10/06 12:56:34;;;;;;;2.35;2.00;;;14.50;48.40;;;;;;4944046;28;20050;-86